sensor_id;sensor_type;location;lat;lon;timestamp;P1;durP1;ratioP1;P2;durP2;ratioP2
61785;SDS011;47692;53.714;11.372;2023-08-08T00:00:06;6.47;;;1.40;;
61785;SDS011;47692;53.714;11.372;2023-08-08T00:02:33;6.35;;;1.45;;
61785;SDS011;47692;53.714;11.372;2023-08-08T00:04:59;4.13;;;1.25;;
61785;SDS011;47692;53.714;11.372;2023-08-08T00:07:24;5.63;;;1.48;;
61785;SDS011;47692;53.714;11.372;2023-08-08T00:09:49;6.18;;;1.67;;
61785;SDS011;47692;53.714;11.372;2023-08-08T00:12:15;6.03;;;1.38;;
61785;SDS011;47692;53.714;11.372;2023-08-08T00:14:40;5.53;;;1.10;;
61785;SDS011;47692;53.714;11.372;2023-08-08T00:17:05;5.40;;;1.40;;
61785;SDS011;47692;53.714;11.372;2023-08-08T00:19:31;6.30;;;1.38;;
61785;SDS011;47692;53.714;11.372;2023-08-08T00:21:56;6.07;;;1.30;;
61785;SDS011;47692;53.714;11.372;2023-08-08T00:24:21;5.32;;;1.20;;
61785;SDS011;47692;53.714;11.372;2023-08-08T00:26:46;9.00;;;2.05;;
61785;SDS011;47692;53.714;11.372;2023-08-08T00:29:12;5.00;;;1.50;;
61785;SDS011;47692;53.714;11.372;2023-08-08T00:31:37;3.58;;;1.25;;
61785;SDS011;47692;53.714;11.372;2023-08-08T00:34:02;7.13;;;1.42;;
61785;SDS011;47692;53.714;11.372;2023-08-08T00:36:28;7.53;;;1.65;;
61785;SDS011;47692;53.714;11.372;2023-08-08T00:38:53;4.65;;;1.20;;
61785;SDS011;47692;53.714;11.372;2023-08-08T00:41:19;4.43;;;1.20;;
61785;SDS011;47692;53.714;11.372;2023-08-08T00:43:44;3.70;;;1.23;;
61785;SDS011;47692;53.714;11.372;2023-08-08T00:46:09;4.07;;;1.48;;
61785;SDS011;47692;53.714;11.372;2023-08-08T00:48:35;3.10;;;1.13;;
61785;SDS011;47692;53.714;11.372;2023-08-08T00:51:01;4.43;;;1.48;;
61785;SDS011;47692;53.714;11.372;2023-08-08T00:53:27;7.82;;;1.20;;
61785;SDS011;47692;53.714;11.372;2023-08-08T00:55:56;4.43;;;1.40;;
61785;SDS011;47692;53.714;11.372;2023-08-08T00:58:21;4.78;;;1.40;;
61785;SDS011;47692;53.714;11.372;2023-08-08T01:00:47;4.68;;;1.27;;
61785;SDS011;47692;53.714;11.372;2023-08-08T01:03:12;5.35;;;1.38;;
61785;SDS011;47692;53.714;11.372;2023-08-08T01:05:38;5.13;;;1.40;;
61785;SDS011;47692;53.714;11.372;2023-08-08T01:08:08;3.13;;;1.40;;
61785;SDS011;47692;53.714;11.372;2023-08-08T01:10:40;7.15;;;1.30;;
61785;SDS011;47692;53.714;11.372;2023-08-08T01:13:16;4.07;;;1.40;;
61785;SDS011;47692;53.714;11.372;2023-08-08T01:15:45;3.85;;;1.20;;
61785;SDS011;47692;53.714;11.372;2023-08-08T01:18:13;4.57;;;1.17;;
61785;SDS011;47692;53.714;11.372;2023-08-08T01:20:39;4.70;;;1.27;;
61785;SDS011;47692;53.714;11.372;2023-08-08T01:25:40;5.50;;;1.40;;
61785;SDS011;47692;53.714;11.372;2023-08-08T01:28:06;5.10;;;1.30;;
61785;SDS011;47692;53.714;11.372;2023-08-08T01:30:32;3.67;;;1.23;;
61785;SDS011;47692;53.714;11.372;2023-08-08T01:32:57;3.42;;;1.20;;
61785;SDS011;47692;53.714;11.372;2023-08-08T01:35:23;7.72;;;1.52;;
61785;SDS011;47692;53.714;11.372;2023-08-08T01:37:54;4.38;;;1.50;;
61785;SDS011;47692;53.714;11.372;2023-08-08T01:40:42;5.95;;;1.50;;
61785;SDS011;47692;53.714;11.372;2023-08-08T01:43:09;7.22;;;1.50;;
61785;SDS011;47692;53.714;11.372;2023-08-08T01:45:35;6.03;;;1.50;;
61785;SDS011;47692;53.714;11.372;2023-08-08T01:48:06;6.53;;;1.55;;
61785;SDS011;47692;53.714;11.372;2023-08-08T01:50:34;5.05;;;1.52;;
61785;SDS011;47692;53.714;11.372;2023-08-08T01:53:00;5.10;;;1.90;;
61785;SDS011;47692;53.714;11.372;2023-08-08T01:55:26;6.53;;;1.40;;
61785;SDS011;47692;53.714;11.372;2023-08-08T01:57:51;2.80;;;1.20;;
61785;SDS011;47692;53.714;11.372;2023-08-08T02:00:16;6.00;;;1.45;;
61785;SDS011;47692;53.714;11.372;2023-08-08T02:02:42;5.72;;;1.40;;
61785;SDS011;47692;53.714;11.372;2023-08-08T02:05:07;5.20;;;1.60;;
61785;SDS011;47692;53.714;11.372;2023-08-08T02:07:33;4.18;;;1.40;;
61785;SDS011;47692;53.714;11.372;2023-08-08T02:09:58;7.18;;;1.85;;
61785;SDS011;47692;53.714;11.372;2023-08-08T02:12:23;5.20;;;1.45;;
61785;SDS011;47692;53.714;11.372;2023-08-08T02:14:49;4.00;;;1.60;;
61785;SDS011;47692;53.714;11.372;2023-08-08T02:17:14;4.05;;;1.48;;
61785;SDS011;47692;53.714;11.372;2023-08-08T02:19:39;5.30;;;1.30;;
61785;SDS011;47692;53.714;11.372;2023-08-08T02:22:05;2.50;;;1.35;;
61785;SDS011;47692;53.714;11.372;2023-08-08T02:24:30;6.50;;;1.70;;
61785;SDS011;47692;53.714;11.372;2023-08-08T02:26:55;3.45;;;1.30;;
61785;SDS011;47692;53.714;11.372;2023-08-08T02:29:21;5.82;;;1.40;;
61785;SDS011;47692;53.714;11.372;2023-08-08T02:31:46;5.35;;;1.23;;
61785;SDS011;47692;53.714;11.372;2023-08-08T02:34:11;5.07;;;1.40;;
61785;SDS011;47692;53.714;11.372;2023-08-08T02:36:36;2.08;;;1.17;;
61785;SDS011;47692;53.714;11.372;2023-08-08T02:39:02;5.15;;;1.30;;
61785;SDS011;47692;53.714;11.372;2023-08-08T02:41:28;5.47;;;1.50;;
61785;SDS011;47692;53.714;11.372;2023-08-08T02:43:53;4.80;;;1.35;;
61785;SDS011;47692;53.714;11.372;2023-08-08T02:46:18;6.00;;;1.60;;
61785;SDS011;47692;53.714;11.372;2023-08-08T02:48:44;4.45;;;1.55;;
61785;SDS011;47692;53.714;11.372;2023-08-08T02:51:09;6.07;;;1.50;;
61785;SDS011;47692;53.714;11.372;2023-08-08T02:53:34;3.78;;;1.60;;
61785;SDS011;47692;53.714;11.372;2023-08-08T02:56:00;3.42;;;1.23;;
61785;SDS011;47692;53.714;11.372;2023-08-08T02:58:25;4.18;;;1.17;;
61785;SDS011;47692;53.714;11.372;2023-08-08T03:00:50;7.60;;;1.35;;
61785;SDS011;47692;53.714;11.372;2023-08-08T03:03:16;5.32;;;1.38;;
61785;SDS011;47692;53.714;11.372;2023-08-08T03:05:41;3.90;;;1.73;;
61785;SDS011;47692;53.714;11.372;2023-08-08T03:08:06;7.35;;;1.38;;
61785;SDS011;47692;53.714;11.372;2023-08-08T03:10:31;2.65;;;1.30;;
61785;SDS011;47692;53.714;11.372;2023-08-08T03:12:57;7.60;;;1.52;;
61785;SDS011;47692;53.714;11.372;2023-08-08T03:15:22;3.85;;;1.40;;
61785;SDS011;47692;53.714;11.372;2023-08-08T03:17:48;2.95;;;1.30;;
61785;SDS011;47692;53.714;11.372;2023-08-08T03:20:13;6.95;;;1.67;;
61785;SDS011;47692;53.714;11.372;2023-08-08T03:22:39;6.55;;;1.48;;
61785;SDS011;47692;53.714;11.372;2023-08-08T03:25:04;5.85;;;1.52;;
61785;SDS011;47692;53.714;11.372;2023-08-08T03:27:30;3.17;;;1.33;;
61785;SDS011;47692;53.714;11.372;2023-08-08T03:29:55;5.25;;;1.60;;
61785;SDS011;47692;53.714;11.372;2023-08-08T03:32:21;3.92;;;1.67;;
61785;SDS011;47692;53.714;11.372;2023-08-08T03:34:47;5.65;;;1.30;;
61785;SDS011;47692;53.714;11.372;2023-08-08T03:37:12;3.85;;;1.42;;
61785;SDS011;47692;53.714;11.372;2023-08-08T03:39:38;5.35;;;1.13;;
61785;SDS011;47692;53.714;11.372;2023-08-08T03:42:03;6.18;;;1.38;;
61785;SDS011;47692;53.714;11.372;2023-08-08T03:44:29;5.30;;;1.77;;
61785;SDS011;47692;53.714;11.372;2023-08-08T03:46:54;4.25;;;1.50;;
61785;SDS011;47692;53.714;11.372;2023-08-08T03:49:19;7.00;;;1.90;;
61785;SDS011;47692;53.714;11.372;2023-08-08T03:51:45;5.82;;;1.38;;
61785;SDS011;47692;53.714;11.372;2023-08-08T03:54:10;7.95;;;1.60;;
61785;SDS011;47692;53.714;11.372;2023-08-08T03:56:35;5.57;;;1.33;;
61785;SDS011;47692;53.714;11.372;2023-08-08T03:59:01;5.40;;;1.98;;
61785;SDS011;47692;53.714;11.372;2023-08-08T04:01:26;5.85;;;1.13;;
61785;SDS011;47692;53.714;11.372;2023-08-08T04:03:51;3.38;;;1.30;;
61785;SDS011;47692;53.714;11.372;2023-08-08T04:06:16;5.30;;;1.60;;
61785;SDS011;47692;53.714;11.372;2023-08-08T04:08:42;3.25;;;1.67;;
61785;SDS011;47692;53.714;11.372;2023-08-08T04:11:07;3.92;;;1.02;;
61785;SDS011;47692;53.714;11.372;2023-08-08T04:13:32;5.78;;;1.30;;
61785;SDS011;47692;53.714;11.372;2023-08-08T04:15:58;3.72;;;1.33;;
61785;SDS011;47692;53.714;11.372;2023-08-08T04:18:25;5.82;;;1.35;;
61785;SDS011;47692;53.714;11.372;2023-08-08T04:20:50;5.03;;;1.35;;
61785;SDS011;47692;53.714;11.372;2023-08-08T04:23:17;5.50;;;1.08;;
61785;SDS011;47692;53.714;11.372;2023-08-08T04:25:42;5.07;;;1.23;;
61785;SDS011;47692;53.714;11.372;2023-08-08T04:28:08;2.80;;;1.25;;
61785;SDS011;47692;53.714;11.372;2023-08-08T04:30:33;2.53;;;1.20;;
61785;SDS011;47692;53.714;11.372;2023-08-08T04:32:58;8.95;;;1.23;;
61785;SDS011;47692;53.714;11.372;2023-08-08T04:35:24;3.70;;;1.40;;
61785;SDS011;47692;53.714;11.372;2023-08-08T04:37:49;3.88;;;1.10;;
61785;SDS011;47692;53.714;11.372;2023-08-08T04:40:15;2.75;;;1.00;;
61785;SDS011;47692;53.714;11.372;2023-08-08T04:42:40;2.58;;;0.93;;
61785;SDS011;47692;53.714;11.372;2023-08-08T04:45:06;3.97;;;1.25;;
61785;SDS011;47692;53.714;11.372;2023-08-08T04:47:32;4.40;;;1.10;;
61785;SDS011;47692;53.714;11.372;2023-08-08T04:49:57;5.38;;;1.17;;
61785;SDS011;47692;53.714;11.372;2023-08-08T04:52:23;2.97;;;1.35;;
61785;SDS011;47692;53.714;11.372;2023-08-08T04:54:48;1.55;;;0.90;;
61785;SDS011;47692;53.714;11.372;2023-08-08T04:57:14;3.28;;;1.02;;
61785;SDS011;47692;53.714;11.372;2023-08-08T04:59:39;3.72;;;1.20;;
61785;SDS011;47692;53.714;11.372;2023-08-08T05:02:04;2.50;;;1.20;;
61785;SDS011;47692;53.714;11.372;2023-08-08T05:04:30;2.08;;;1.23;;
61785;SDS011;47692;53.714;11.372;2023-08-08T05:06:55;4.43;;;0.98;;
61785;SDS011;47692;53.714;11.372;2023-08-08T05:09:22;2.35;;;0.98;;
61785;SDS011;47692;53.714;11.372;2023-08-08T05:11:51;3.10;;;1.20;;
61785;SDS011;47692;53.714;11.372;2023-08-08T05:14:17;1.60;;;0.98;;
61785;SDS011;47692;53.714;11.372;2023-08-08T05:16:43;5.57;;;1.05;;
61785;SDS011;47692;53.714;11.372;2023-08-08T05:19:08;2.92;;;1.23;;
61785;SDS011;47692;53.714;11.372;2023-08-08T05:21:34;1.75;;;1.00;;
61785;SDS011;47692;53.714;11.372;2023-08-08T05:23:59;6.13;;;1.60;;
61785;SDS011;47692;53.714;11.372;2023-08-08T05:26:25;2.75;;;1.05;;
61785;SDS011;47692;53.714;11.372;2023-08-08T05:28:50;2.03;;;0.93;;
61785;SDS011;47692;53.714;11.372;2023-08-08T05:31:15;3.95;;;1.30;;
61785;SDS011;47692;53.714;11.372;2023-08-08T05:33:41;5.78;;;1.00;;
61785;SDS011;47692;53.714;11.372;2023-08-08T05:36:06;3.00;;;0.88;;
61785;SDS011;47692;53.714;11.372;2023-08-08T05:38:32;3.85;;;1.02;;
61785;SDS011;47692;53.714;11.372;2023-08-08T05:40:57;2.13;;;1.20;;
61785;SDS011;47692;53.714;11.372;2023-08-08T05:43:22;3.20;;;1.05;;
61785;SDS011;47692;53.714;11.372;2023-08-08T05:45:48;7.20;;;1.15;;
61785;SDS011;47692;53.714;11.372;2023-08-08T05:48:13;3.42;;;1.15;;
61785;SDS011;47692;53.714;11.372;2023-08-08T05:50:39;5.30;;;1.30;;
61785;SDS011;47692;53.714;11.372;2023-08-08T05:53:04;4.30;;;0.93;;
61785;SDS011;47692;53.714;11.372;2023-08-08T05:55:30;3.47;;;0.98;;
61785;SDS011;47692;53.714;11.372;2023-08-08T05:57:55;2.85;;;1.00;;
61785;SDS011;47692;53.714;11.372;2023-08-08T06:00:20;1.67;;;0.93;;
61785;SDS011;47692;53.714;11.372;2023-08-08T06:02:46;2.53;;;0.90;;
61785;SDS011;47692;53.714;11.372;2023-08-08T06:05:11;3.28;;;1.10;;
61785;SDS011;47692;53.714;11.372;2023-08-08T06:07:37;3.70;;;0.90;;
61785;SDS011;47692;53.714;11.372;2023-08-08T06:10:02;4.18;;;0.75;;
61785;SDS011;47692;53.714;11.372;2023-08-08T06:12:28;3.67;;;1.00;;
61785;SDS011;47692;53.714;11.372;2023-08-08T06:14:53;3.15;;;1.20;;
61785;SDS011;47692;53.714;11.372;2023-08-08T06:17:19;3.25;;;1.02;;
61785;SDS011;47692;53.714;11.372;2023-08-08T06:19:45;3.17;;;1.40;;
61785;SDS011;47692;53.714;11.372;2023-08-08T06:22:11;9.27;;;1.25;;
61785;SDS011;47692;53.714;11.372;2023-08-08T06:24:37;2.17;;;1.00;;
61785;SDS011;47692;53.714;11.372;2023-08-08T06:27:04;2.38;;;1.25;;
61785;SDS011;47692;53.714;11.372;2023-08-08T06:29:29;3.40;;;1.20;;
61785;SDS011;47692;53.714;11.372;2023-08-08T06:31:55;1.67;;;0.95;;
61785;SDS011;47692;53.714;11.372;2023-08-08T06:34:21;5.13;;;0.90;;
61785;SDS011;47692;53.714;11.372;2023-08-08T06:36:46;2.63;;;1.00;;
61785;SDS011;47692;53.714;11.372;2023-08-08T06:39:12;4.00;;;0.90;;
61785;SDS011;47692;53.714;11.372;2023-08-08T06:41:37;6.78;;;1.17;;
61785;SDS011;47692;53.714;11.372;2023-08-08T06:44:03;6.40;;;1.02;;
61785;SDS011;47692;53.714;11.372;2023-08-08T06:46:29;4.63;;;1.00;;
61785;SDS011;47692;53.714;11.372;2023-08-08T06:48:55;4.22;;;0.85;;
61785;SDS011;47692;53.714;11.372;2023-08-08T06:51:24;5.03;;;1.00;;
61785;SDS011;47692;53.714;11.372;2023-08-08T06:53:49;3.92;;;0.75;;
61785;SDS011;47692;53.714;11.372;2023-08-08T06:56:15;2.92;;;0.82;;
61785;SDS011;47692;53.714;11.372;2023-08-08T06:58:40;2.05;;;0.95;;
61785;SDS011;47692;53.714;11.372;2023-08-08T07:01:05;3.72;;;0.98;;
61785;SDS011;47692;53.714;11.372;2023-08-08T07:03:31;5.70;;;1.10;;
61785;SDS011;47692;53.714;11.372;2023-08-08T07:05:56;5.43;;;1.10;;
61785;SDS011;47692;53.714;11.372;2023-08-08T07:08:22;5.03;;;0.90;;
61785;SDS011;47692;53.714;11.372;2023-08-08T07:10:47;4.43;;;0.90;;
61785;SDS011;47692;53.714;11.372;2023-08-08T07:13:12;6.95;;;1.80;;
61785;SDS011;47692;53.714;11.372;2023-08-08T07:15:40;3.03;;;0.80;;
61785;SDS011;47692;53.714;11.372;2023-08-08T07:18:05;1.90;;;0.82;;
61785;SDS011;47692;53.714;11.372;2023-08-08T07:20:31;5.07;;;1.33;;
61785;SDS011;47692;53.714;11.372;2023-08-08T07:22:56;3.25;;;1.13;;
61785;SDS011;47692;53.714;11.372;2023-08-08T07:25:21;5.43;;;0.85;;
61785;SDS011;47692;53.714;11.372;2023-08-08T07:27:47;4.03;;;1.02;;
61785;SDS011;47692;53.714;11.372;2023-08-08T07:30:12;3.30;;;0.68;;
61785;SDS011;47692;53.714;11.372;2023-08-08T07:32:38;3.33;;;1.10;;
61785;SDS011;47692;53.714;11.372;2023-08-08T07:35:03;3.95;;;0.90;;
61785;SDS011;47692;53.714;11.372;2023-08-08T07:37:31;1.42;;;0.68;;
61785;SDS011;47692;53.714;11.372;2023-08-08T07:39:57;2.08;;;0.73;;
61785;SDS011;47692;53.714;11.372;2023-08-08T07:42:22;2.53;;;0.88;;
61785;SDS011;47692;53.714;11.372;2023-08-08T07:44:47;2.03;;;0.85;;
61785;SDS011;47692;53.714;11.372;2023-08-08T07:47:13;5.65;;;1.00;;
61785;SDS011;47692;53.714;11.372;2023-08-08T07:49:38;3.35;;;1.10;;
61785;SDS011;47692;53.714;11.372;2023-08-08T07:52:03;3.80;;;1.10;;
61785;SDS011;47692;53.714;11.372;2023-08-08T07:54:29;4.13;;;1.13;;
61785;SDS011;47692;53.714;11.372;2023-08-08T07:56:54;5.53;;;1.92;;
61785;SDS011;47692;53.714;11.372;2023-08-08T07:59:20;1.67;;;0.73;;
61785;SDS011;47692;53.714;11.372;2023-08-08T08:01:45;3.63;;;1.20;;
61785;SDS011;47692;53.714;11.372;2023-08-08T08:04:11;2.38;;;1.00;;
61785;SDS011;47692;53.714;11.372;2023-08-08T08:06:37;5.32;;;1.33;;
61785;SDS011;47692;53.714;11.372;2023-08-08T08:09:02;2.80;;;1.08;;
61785;SDS011;47692;53.714;11.372;2023-08-08T08:11:28;3.92;;;1.17;;
61785;SDS011;47692;53.714;11.372;2023-08-08T08:13:54;2.63;;;0.90;;
61785;SDS011;47692;53.714;11.372;2023-08-08T08:16:19;1.67;;;0.80;;
61785;SDS011;47692;53.714;11.372;2023-08-08T08:18:45;2.47;;;0.88;;
61785;SDS011;47692;53.714;11.372;2023-08-08T08:21:12;2.00;;;0.75;;
61785;SDS011;47692;53.714;11.372;2023-08-08T08:23:38;2.92;;;1.02;;
61785;SDS011;47692;53.714;11.372;2023-08-08T08:26:03;4.18;;;1.00;;
61785;SDS011;47692;53.714;11.372;2023-08-08T08:28:29;3.63;;;1.00;;
61785;SDS011;47692;53.714;11.372;2023-08-08T08:30:54;3.53;;;1.02;;
61785;SDS011;47692;53.714;11.372;2023-08-08T08:33:19;2.72;;;0.90;;
61785;SDS011;47692;53.714;11.372;2023-08-08T08:35:44;2.20;;;1.00;;
61785;SDS011;47692;53.714;11.372;2023-08-08T08:38:10;5.47;;;0.80;;
61785;SDS011;47692;53.714;11.372;2023-08-08T08:40:36;3.75;;;1.08;;
61785;SDS011;47692;53.714;11.372;2023-08-08T08:43:03;3.28;;;0.85;;
61785;SDS011;47692;53.714;11.372;2023-08-08T08:45:29;4.45;;;0.80;;
61785;SDS011;47692;53.714;11.372;2023-08-08T08:47:56;4.57;;;0.90;;
61785;SDS011;47692;53.714;11.372;2023-08-08T08:50:26;4.80;;;1.05;;
61785;SDS011;47692;53.714;11.372;2023-08-08T08:52:53;3.53;;;1.00;;
61785;SDS011;47692;53.714;11.372;2023-08-08T08:55:21;2.13;;;0.85;;
61785;SDS011;47692;53.714;11.372;2023-08-08T08:57:46;2.97;;;0.80;;
61785;SDS011;47692;53.714;11.372;2023-08-08T09:00:14;6.95;;;1.10;;
61785;SDS011;47692;53.714;11.372;2023-08-08T09:02:39;2.25;;;0.63;;
61785;SDS011;47692;53.714;11.372;2023-08-08T09:05:05;3.72;;;1.10;;
61785;SDS011;47692;53.714;11.372;2023-08-08T09:07:31;3.08;;;0.85;;
61785;SDS011;47692;53.714;11.372;2023-08-08T09:09:57;2.75;;;0.70;;
61785;SDS011;47692;53.714;11.372;2023-08-08T09:12:23;2.78;;;0.77;;
61785;SDS011;47692;53.714;11.372;2023-08-08T09:14:53;4.35;;;0.80;;
61785;SDS011;47692;53.714;11.372;2023-08-08T09:19:46;2.13;;;0.70;;
61785;SDS011;47692;53.714;11.372;2023-08-08T09:22:12;2.25;;;0.60;;
61785;SDS011;47692;53.714;11.372;2023-08-08T09:24:39;2.00;;;0.60;;
61785;SDS011;47692;53.714;11.372;2023-08-08T09:27:06;3.78;;;0.90;;
61785;SDS011;47692;53.714;11.372;2023-08-08T09:29:32;2.15;;;0.75;;
61785;SDS011;47692;53.714;11.372;2023-08-08T09:31:58;2.58;;;0.90;;
61785;SDS011;47692;53.714;11.372;2023-08-08T09:34:24;3.58;;;0.90;;
61785;SDS011;47692;53.714;11.372;2023-08-08T09:36:51;3.50;;;1.27;;
61785;SDS011;47692;53.714;11.372;2023-08-08T09:39:18;2.25;;;0.82;;
61785;SDS011;47692;53.714;11.372;2023-08-08T09:41:45;4.63;;;1.40;;
61785;SDS011;47692;53.714;11.372;2023-08-08T09:44:11;4.57;;;1.02;;
61785;SDS011;47692;53.714;11.372;2023-08-08T09:46:36;5.45;;;1.13;;
61785;SDS011;47692;53.714;11.372;2023-08-08T09:49:03;5.78;;;1.45;;
61785;SDS011;47692;53.714;11.372;2023-08-08T09:51:29;6.55;;;1.67;;
61785;SDS011;47692;53.714;11.372;2023-08-08T09:53:55;4.18;;;1.63;;
61785;SDS011;47692;53.714;11.372;2023-08-08T09:56:21;4.90;;;1.40;;
61785;SDS011;47692;53.714;11.372;2023-08-08T09:58:49;5.57;;;1.50;;
61785;SDS011;47692;53.714;11.372;2023-08-08T10:01:15;2.28;;;1.05;;
61785;SDS011;47692;53.714;11.372;2023-08-08T10:03:41;1.77;;;0.90;;
61785;SDS011;47692;53.714;11.372;2023-08-08T10:06:09;5.15;;;1.25;;
61785;SDS011;47692;53.714;11.372;2023-08-08T10:08:35;3.15;;;1.00;;
61785;SDS011;47692;53.714;11.372;2023-08-08T10:11:00;3.05;;;1.00;;
61785;SDS011;47692;53.714;11.372;2023-08-08T10:13:27;2.95;;;1.20;;
61785;SDS011;47692;53.714;11.372;2023-08-08T10:15:53;1.63;;;0.90;;
61785;SDS011;47692;53.714;11.372;2023-08-08T10:18:22;4.55;;;1.10;;
61785;SDS011;47692;53.714;11.372;2023-08-08T10:20:48;5.15;;;1.20;;
61785;SDS011;47692;53.714;11.372;2023-08-08T10:23:16;1.83;;;1.00;;
61785;SDS011;47692;53.714;11.372;2023-08-08T10:25:45;2.45;;;0.63;;
61785;SDS011;47692;53.714;11.372;2023-08-08T10:28:12;2.05;;;1.08;;
61785;SDS011;47692;53.714;11.372;2023-08-08T10:33:41;2.88;;;0.70;;
61785;SDS011;47692;53.714;11.372;2023-08-08T10:36:08;4.68;;;0.80;;
61785;SDS011;47692;53.714;11.372;2023-08-08T10:38:38;3.25;;;0.80;;
61785;SDS011;47692;53.714;11.372;2023-08-08T10:41:10;1.10;;;0.50;;
61785;SDS011;47692;53.714;11.372;2023-08-08T10:43:36;0.75;;;0.40;;
61785;SDS011;47692;53.714;11.372;2023-08-08T10:46:03;2.05;;;0.60;;
61785;SDS011;47692;53.714;11.372;2023-08-08T10:48:29;2.85;;;0.50;;
61785;SDS011;47692;53.714;11.372;2023-08-08T10:50:55;1.85;;;0.75;;
61785;SDS011;47692;53.714;11.372;2023-08-08T10:53:24;1.65;;;0.57;;
61785;SDS011;47692;53.714;11.372;2023-08-08T10:55:58;1.95;;;0.50;;
61785;SDS011;47692;53.714;11.372;2023-08-08T10:58:36;0.82;;;0.40;;
61785;SDS011;47692;53.714;11.372;2023-08-08T11:01:02;1.67;;;0.52;;
61785;SDS011;47692;53.714;11.372;2023-08-08T11:03:30;2.83;;;0.43;;
61785;SDS011;47692;53.714;11.372;2023-08-08T11:05:55;1.40;;;0.50;;
61785;SDS011;47692;53.714;11.372;2023-08-08T11:08:21;3.42;;;0.70;;
61785;SDS011;47692;53.714;11.372;2023-08-08T11:10:50;2.00;;;0.60;;
61785;SDS011;47692;53.714;11.372;2023-08-08T11:13:17;1.40;;;0.70;;
61785;SDS011;47692;53.714;11.372;2023-08-08T11:15:42;3.38;;;0.32;;
61785;SDS011;47692;53.714;11.372;2023-08-08T11:18:08;1.08;;;0.50;;
61785;SDS011;47692;53.714;11.372;2023-08-08T11:20:34;2.70;;;0.80;;
61785;SDS011;47692;53.714;11.372;2023-08-08T11:23:01;2.97;;;0.60;;
61785;SDS011;47692;53.714;11.372;2023-08-08T11:25:27;3.50;;;1.33;;
61785;SDS011;47692;53.714;11.372;2023-08-08T11:27:54;2.63;;;0.50;;
61785;SDS011;47692;53.714;11.372;2023-08-08T11:30:21;1.83;;;0.47;;
61785;SDS011;47692;53.714;11.372;2023-08-08T11:32:49;1.25;;;0.30;;
61785;SDS011;47692;53.714;11.372;2023-08-08T11:35:16;2.67;;;0.50;;
61785;SDS011;47692;53.714;11.372;2023-08-08T11:37:43;2.10;;;0.77;;
61785;SDS011;47692;53.714;11.372;2023-08-08T11:40:10;0.80;;;0.20;;
61785;SDS011;47692;53.714;11.372;2023-08-08T11:42:37;1.15;;;0.30;;
61785;SDS011;47692;53.714;11.372;2023-08-08T11:45:03;1.33;;;0.60;;
61785;SDS011;47692;53.714;11.372;2023-08-08T11:47:29;2.90;;;0.50;;
61785;SDS011;47692;53.714;11.372;2023-08-08T11:50:00;1.37;;;0.50;;
61785;SDS011;47692;53.714;11.372;2023-08-08T11:52:26;3.17;;;0.63;;
61785;SDS011;47692;53.714;11.372;2023-08-08T11:54:53;5.45;;;0.70;;
61785;SDS011;47692;53.714;11.372;2023-08-08T11:57:18;2.22;;;0.55;;
61785;SDS011;47692;53.714;11.372;2023-08-08T11:59:43;1.13;;;0.65;;
61785;SDS011;47692;53.714;11.372;2023-08-08T12:02:09;3.97;;;0.65;;
61785;SDS011;47692;53.714;11.372;2023-08-08T12:04:34;5.18;;;0.65;;
61785;SDS011;47692;53.714;11.372;2023-08-08T12:07:01;5.30;;;0.68;;
61785;SDS011;47692;53.714;11.372;2023-08-08T12:09:28;3.42;;;0.63;;
61785;SDS011;47692;53.714;11.372;2023-08-08T12:12:01;1.17;;;0.45;;
61785;SDS011;47692;53.714;11.372;2023-08-08T12:14:26;2.13;;;0.60;;
61785;SDS011;47692;53.714;11.372;2023-08-08T12:16:52;2.03;;;0.50;;
61785;SDS011;47692;53.714;11.372;2023-08-08T12:19:21;2.58;;;0.52;;
61785;SDS011;47692;53.714;11.372;2023-08-08T12:21:48;3.35;;;0.50;;
61785;SDS011;47692;53.714;11.372;2023-08-08T12:24:13;1.67;;;0.45;;
61785;SDS011;47692;53.714;11.372;2023-08-08T12:26:39;2.22;;;0.55;;
61785;SDS011;47692;53.714;11.372;2023-08-08T12:29:04;1.77;;;0.40;;
61785;SDS011;47692;53.714;11.372;2023-08-08T12:31:29;1.42;;;0.40;;
61785;SDS011;47692;53.714;11.372;2023-08-08T12:33:55;4.82;;;0.85;;
61785;SDS011;47692;53.714;11.372;2023-08-08T12:36:20;1.77;;;0.60;;
61785;SDS011;47692;53.714;11.372;2023-08-08T12:38:45;0.88;;;0.50;;
61785;SDS011;47692;53.714;11.372;2023-08-08T12:41:11;1.77;;;0.50;;
61785;SDS011;47692;53.714;11.372;2023-08-08T12:43:37;3.03;;;0.40;;
61785;SDS011;47692;53.714;11.372;2023-08-08T12:46:03;4.80;;;0.60;;
61785;SDS011;47692;53.714;11.372;2023-08-08T12:48:29;1.65;;;0.63;;
61785;SDS011;47692;53.714;11.372;2023-08-08T12:50:54;2.25;;;0.47;;
61785;SDS011;47692;53.714;11.372;2023-08-08T12:53:20;5.68;;;0.75;;
61785;SDS011;47692;53.714;11.372;2023-08-08T12:55:45;2.10;;;0.52;;
61785;SDS011;47692;53.714;11.372;2023-08-08T12:58:11;2.65;;;0.50;;
61785;SDS011;47692;53.714;11.372;2023-08-08T13:00:36;2.38;;;0.60;;
61785;SDS011;47692;53.714;11.372;2023-08-08T13:03:02;2.50;;;0.80;;
61785;SDS011;47692;53.714;11.372;2023-08-08T13:05:28;2.25;;;0.65;;
61785;SDS011;47692;53.714;11.372;2023-08-08T13:07:53;3.30;;;0.60;;
61785;SDS011;47692;53.714;11.372;2023-08-08T13:10:18;4.63;;;0.70;;
61785;SDS011;47692;53.714;11.372;2023-08-08T13:12:45;2.90;;;0.43;;
61785;SDS011;47692;53.714;11.372;2023-08-08T13:15:10;5.45;;;0.70;;
61785;SDS011;47692;53.714;11.372;2023-08-08T13:17:36;4.60;;;0.85;;
61785;SDS011;47692;53.714;11.372;2023-08-08T13:20:01;2.97;;;0.60;;
61785;SDS011;47692;53.714;11.372;2023-08-08T13:22:27;2.58;;;0.63;;
61785;SDS011;47692;53.714;11.372;2023-08-08T13:24:52;3.58;;;0.60;;
61785;SDS011;47692;53.714;11.372;2023-08-08T13:27:17;1.67;;;0.50;;
61785;SDS011;47692;53.714;11.372;2023-08-08T13:29:43;1.23;;;0.63;;
61785;SDS011;47692;53.714;11.372;2023-08-08T13:32:09;2.80;;;0.47;;
61785;SDS011;47692;53.714;11.372;2023-08-08T13:34:34;1.60;;;0.77;;
61785;SDS011;47692;53.714;11.372;2023-08-08T13:37:00;4.13;;;0.85;;
61785;SDS011;47692;53.714;11.372;2023-08-08T13:39:25;2.53;;;0.82;;
61785;SDS011;47692;53.714;11.372;2023-08-08T13:41:50;2.83;;;0.47;;
61785;SDS011;47692;53.714;11.372;2023-08-08T13:44:16;4.30;;;0.50;;
61785;SDS011;47692;53.714;11.372;2023-08-08T13:46:41;2.80;;;0.43;;
61785;SDS011;47692;53.714;11.372;2023-08-08T13:49:06;1.02;;;0.40;;
61785;SDS011;47692;53.714;11.372;2023-08-08T13:51:32;4.05;;;0.60;;
61785;SDS011;47692;53.714;11.372;2023-08-08T13:53:57;2.20;;;0.60;;
61785;SDS011;47692;53.714;11.372;2023-08-08T13:56:22;7.95;;;0.90;;
61785;SDS011;47692;53.714;11.372;2023-08-08T13:58:48;1.90;;;0.50;;
61785;SDS011;47692;53.714;11.372;2023-08-08T14:01:13;4.55;;;0.80;;
61785;SDS011;47692;53.714;11.372;2023-08-08T14:03:39;2.00;;;0.70;;
61785;SDS011;47692;53.714;11.372;2023-08-08T14:06:04;1.80;;;0.70;;
61785;SDS011;47692;53.714;11.372;2023-08-08T14:08:31;5.68;;;1.00;;
61785;SDS011;47692;53.714;11.372;2023-08-08T14:10:56;4.25;;;0.65;;
61785;SDS011;47692;53.714;11.372;2023-08-08T14:13:21;2.50;;;0.70;;
61785;SDS011;47692;53.714;11.372;2023-08-08T14:15:47;6.53;;;0.70;;
61785;SDS011;47692;53.714;11.372;2023-08-08T14:18:13;5.50;;;0.90;;
61785;SDS011;47692;53.714;11.372;2023-08-08T14:20:38;6.00;;;0.65;;
61785;SDS011;47692;53.714;11.372;2023-08-08T14:23:04;3.95;;;1.08;;
61785;SDS011;47692;53.714;11.372;2023-08-08T14:25:31;3.80;;;0.60;;
61785;SDS011;47692;53.714;11.372;2023-08-08T14:27:56;9.13;;;1.42;;
61785;SDS011;47692;53.714;11.372;2023-08-08T14:30:22;4.88;;;0.93;;
61785;SDS011;47692;53.714;11.372;2023-08-08T14:32:50;3.70;;;0.70;;